Time;durP1;ratioP1;P1;durP2;ratioP2;P2;SDS_P1;SDS_P2;PMS_P1;PMS_P2;Temp;Humidity;BMP_temperature;BMP_pressure;BME280_temperature;BME280_humidity;BME280_pressure;Samples;Min_cycle;Max_cycle;Signal;HPM_P1;HPM_P2
2023/09/07 00:01:33;;;;;;;2.47;1.73;;;;;;;25.43;100.00;101624.78;4991519;28;20088;-51
2023/09/07 00:04:02;;;;;;;4.47;2.13;;;;;;;25.41;100.00;101622.44;4988653;28;20154;-51
2023/09/07 00:06:29;;;;;;;2.55;1.88;;;;;;;25.38;100.00;101617.75;4986471;28;20046;-50
2023/09/07 00:08:56;;;;;;;3.55;1.88;;;;;;;25.32;100.00;101616.91;4987984;28;20082;-48
2023/09/07 00:11:22;;;;;;;2.47;1.80;;;;;;;25.31;100.00;101617.41;4997390;28;20132;-52
2023/09/07 00:13:50;;;;;;;3.20;2.03;;;;;;;25.33;100.00;101617.69;4985350;28;20133;-50
2023/09/07 00:16:16;;;;;;;2.95;1.95;;;;;;;25.39;100.00;101612.84;4986381;28;20050;-49
2023/09/07 00:18:43;;;;;;;5.60;2.53;;;;;;;25.42;100.00;101604.09;4987422;28;20133;-54
2023/09/07 00:21:10;;;;;;;4.75;1.90;;;;;;;25.43;100.00;101599.97;4987096;28;20046;-50
2023/09/07 00:23:36;;;;;;;2.47;2.00;;;;;;;25.42;100.00;101603.31;4987352;28;20046;-49
2023/09/07 00:26:03;;;;;;;3.83;2.08;;;;;;;25.34;100.00;101605.78;4984234;28;20583;-52
2023/09/07 00:28:30;;;;;;;3.65;1.98;;;;;;;25.35;100.00;101609.44;4985389;28;20137;-51
2023/09/07 00:30:57;;;;;;;2.30;1.75;;;;;;;25.43;100.00;101605.66;4985248;28;20050;-50
2023/09/07 00:33:23;;;;;;;4.60;2.17;;;;;;;25.34;100.00;101608.63;4987779;28;20437;-50
2023/09/07 00:35:50;;;;;;;3.30;2.00;;;;;;;25.33;100.00;101611.97;4986207;28;20088;-49
2023/09/07 00:38:16;;;;;;;2.90;2.00;;;;;;;25.24;100.00;101612.91;4986002;28;20077;-48
2023/09/07 00:40:46;;;;;;;3.17;1.98;;;;;;;25.35;100.00;101610.19;4988286;28;20093;-52
2023/09/07 00:43:13;;;;;;;3.85;2.10;;;;;;;25.37;100.00;101607.66;4988458;28;20069;-55
2023/09/07 00:45:40;;;;;;;5.97;2.08;;;;;;;25.35;100.00;101601.66;4987325;28;20048;-51
2023/09/07 00:48:07;;;;;;;4.80;2.13;;;;;;;25.37;100.00;101610.50;4987292;28;20061;-50
2023/09/07 00:50:34;;;;;;;2.42;2.00;;;;;;;25.36;100.00;101611.78;4990228;28;20058;-49
2023/09/07 00:53:02;;;;;;;4.47;1.90;;;;;;;25.34;100.00;101611.47;4988151;28;20136;-54
2023/09/07 00:55:32;;;;;;;2.47;1.73;;;;;;;25.33;100.00;101606.28;4986928;28;20049;-51
2023/09/07 00:57:59;;;;;;;2.88;2.00;;;;;;;25.36;100.00;101605.28;4985762;28;20054;-53
2023/09/07 01:00:26;;;;;;;3.88;2.28;;;;;;;25.40;100.00;101605.84;4985958;28;20055;-48
2023/09/07 01:02:53;;;;;;;3.95;2.13;;;;;;;25.39;100.00;101604.28;4987610;28;20073;-49
2023/09/07 01:05:27;;;;;;;2.72;1.98;;;;;;;25.41;100.00;101598.91;4983593;28;20082;-50
2023/09/07 01:08:08;;;;;;;3.85;2.00;;;;;;;25.37;100.00;101584.88;4989377;28;20137;-53
2023/09/07 01:10:35;;;;;;;5.53;1.90;;;;;;;25.39;100.00;101596.56;4987906;28;20046;-48
2023/09/07 01:13:01;;;;;;;3.22;1.95;;;;;;;25.30;100.00;101588.16;4990424;28;20157;-50
2023/09/07 01:15:28;;;;;;;2.70;1.85;;;;;;;25.31;100.00;101586.88;4992971;28;20073;-48
2023/09/07 01:17:56;;;;;;;3.25;1.95;;;;;;;25.30;100.00;101588.16;4989839;28;20133;-48
2023/09/07 01:20:42;;;;;;;4.20;1.73;;;;;;;25.36;100.00;101588.22;4990121;28;20489;-51
2023/09/07 01:23:10;;;;;;;2.83;1.70;;;;;;;25.38;100.00;101579.97;4986318;28;20046;-47
2023/09/07 01:25:37;;;;;;;2.65;1.90;;;;;;;25.37;100.00;101579.19;4992190;28;20054;-49
2023/09/07 01:28:04;;;;;;;4.78;2.05;;;;;;;25.32;100.00;101584.81;4988366;28;20054;-50
2023/09/07 01:30:32;;;;;;;3.97;2.20;;;;;;;25.27;100.00;101580.59;4992174;28;22697;-48
2023/09/07 01:32:58;;;;;;;2.67;1.92;;;;;;;25.26;100.00;101590.44;4991429;28;20109;-50
2023/09/07 01:35:26;;;;;;;3.28;1.77;;;;;;;25.28;100.00;101587.84;4987493;28;20096;-51
2023/09/07 01:37:53;;;;;;;3.00;1.80;;;;;;;25.26;100.00;101584.75;4988535;28;20062;-48
2023/09/07 01:40:19;;;;;;;2.95;1.92;;;;;;;25.25;100.00;101583.19;4987860;28;20048;-47
2023/09/07 01:42:46;;;;;;;3.47;1.80;;;;;;;25.26;100.00;101583.97;4989748;28;20096;-46
2023/09/07 01:45:12;;;;;;;3.10;1.95;;;;;;;25.23;100.00;101579.25;4991173;28;20065;-47
2023/09/07 01:47:39;;;;;;;2.60;1.80;;;;;;;25.27;100.00;101580.59;4990225;28;20057;-47
2023/09/07 01:50:06;;;;;;;2.40;1.80;;;;;;;25.27;100.00;101580.59;4991298;28;20055;-49
2023/09/07 01:52:33;;;;;;;3.83;2.15;;;;;;;25.31;100.00;101578.31;4992132;28;20169;-49
2023/09/07 01:54:59;;;;;;;4.63;1.92;;;;;;;25.46;100.00;101581.91;4989781;28;20100;-48
2023/09/07 01:57:26;;;;;;;4.28;2.05;;;;;;;25.51;100.00;101580.41;4990532;28;20260;-46
2023/09/07 01:59:52;;;;;;;3.75;1.80;;;;;;;25.55;100.00;101581.72;4990555;28;20155;-48
2023/09/07 02:02:19;;;;;;;3.15;1.85;;;;;;;25.58;100.00;101577.88;4991827;28;20042;-50
2023/09/07 02:04:46;;;;;;;2.60;1.73;;;;;;;25.58;100.00;101577.88;4989059;28;20050;-48
2023/09/07 02:07:13;;;;;;;2.20;1.60;;;;;;;25.61;100.00;101576.13;4995319;28;20595;-48
2023/09/07 02:09:41;;;;;;;3.83;2.30;;;;;;;25.62;100.00;101581.28;4989039;28;20049;-50
2023/09/07 02:12:08;;;;;;;2.65;1.92;;;;;;;25.60;100.00;101578.19;4990066;28;20108;-50
2023/09/07 02:14:34;;;;;;;4.57;2.10;;;;;;;25.61;100.00;101568.34;4990580;28;20132;-52
2023/09/07 02:17:01;;;;;;;4.13;2.20;;;;;;;25.63;100.00;101576.38;4990081;28;20082;-47
2023/09/07 02:19:27;;;;;;;3.40;2.00;;;;;;;25.61;100.00;101570.44;4988129;28;20049;-51
2023/09/07 02:21:54;;;;;;;3.58;1.80;;;;;;;25.62;100.00;101567.06;4989355;28;20125;-49
2023/09/07 02:24:21;;;;;;;3.10;1.90;;;;;;;25.66;100.00;101572.53;4990114;28;20058;-47
2023/09/07 02:26:47;;;;;;;5.05;2.13;;;;;;;25.66;100.00;101579.03;4989434;28;20846;-50
2023/09/07 02:29:14;;;;;;;2.60;1.70;;;;;;;25.67;100.00;101572.03;4988745;28;20129;-51
2023/09/07 02:31:40;;;;;;;4.22;2.28;;;;;;;25.64;100.00;101572.25;4989879;28;20050;-48
2023/09/07 02:34:07;;;;;;;2.42;1.70;;;;;;;25.63;100.00;101574.34;4990488;28;20078;-50
2023/09/07 02:36:37;;;;;;;3.85;1.90;;;;;;;25.64;100.00;101570.19;4989536;28;20058;-51
2023/09/07 02:39:03;;;;;;;2.90;1.70;;;;;;;25.62;100.00;101569.13;4990658;28;20062;-50
2023/09/07 02:41:31;;;;;;;4.00;1.98;;;;;;;25.61;100.00;101567.59;4990231;28;20505;-51
2023/09/07 02:43:57;;;;;;;3.30;1.95;;;;;;;25.61;100.00;101573.28;4985581;28;20124;-49
2023/09/07 02:46:24;;;;;;;3.47;1.80;;;;;;;25.66;100.00;101572.53;4989482;28;20050;-51
2023/09/07 02:48:51;;;;;;;3.90;2.33;;;;;;;25.62;100.00;101571.97;4989448;28;20073;-49
2023/09/07 02:51:18;;;;;;;5.30;1.80;;;;;;;25.61;100.00;101573.28;4987902;28;20112;-46
2023/09/07 02:53:44;;;;;;;3.08;1.67;;;;;;;25.65;100.00;101573.81;4998630;28;20050;-50
2023/09/07 02:56:11;;;;;;;2.83;1.90;;;;;;;25.63;100.00;101574.34;4990250;28;20460;-50
2023/09/07 02:58:37;;;;;;;3.83;1.83;;;;;;;25.61;100.00;101573.28;4996628;28;20077;-47
2023/09/07 03:01:10;;;;;;;3.85;1.92;;;;;;;25.57;100.00;101573.47;4989477;28;20069;-49
2023/09/07 03:03:37;;;;;;;4.18;1.98;;;;;;;25.63;100.00;101577.19;4989508;28;20133;-52
2023/09/07 03:06:12;;;;;;;2.25;1.90;;;;;;;25.61;100.00;101568.34;4989418;28;20050;-45
2023/09/07 03:08:40;;;;;;;3.30;1.70;;;;;;;25.62;100.00;101575.59;4993627;28;20096;-50
2023/09/07 03:11:07;;;;;;;3.00;1.90;;;;;;;25.62;100.00;101569.91;4983472;28;20137;-52
2023/09/07 03:13:34;;;;;;;2.47;1.90;;;;;;;25.61;100.00;101562.66;4988446;28;20520;-50
2023/09/07 03:16:02;;;;;;;3.55;1.92;;;;;;;25.60;100.00;101568.84;4983242;28;20144;-45
2023/09/07 03:18:29;;;;;;;2.50;1.73;;;;;;;25.61;100.00;101565.50;4989564;28;20054;-50
2023/09/07 03:20:59;;;;;;;2.00;1.63;;;;;;;25.60;100.00;101563.94;4989632;28;20051;-48
2023/09/07 03:23:27;;;;;;;3.63;1.80;;;;;;;25.60;100.00;101566.78;4987587;28;20042;-47
2023/09/07 03:25:54;;;;;;;3.47;1.92;;;;;;;25.60;100.00;101563.94;4988606;28;20119;-50
2023/09/07 03:28:20;;;;;;;2.97;1.63;;;;;;;25.61;100.00;101562.66;4989118;28;20117;-47
2023/09/07 03:30:47;;;;;;;3.70;2.00;;;;;;;25.59;100.00;101561.59;4986048;28;20699;-49
2023/09/07 03:33:13;;;;;;;2.35;1.58;;;;;;;25.61;100.00;101565.50;4988457;28;20153;-50
2023/09/07 03:35:40;;;;;;;2.28;1.60;;;;;;;25.60;100.00;101561.09;4987099;28;20050;-49
2023/09/07 03:38:07;;;;;;;3.33;1.75;;;;;;;25.57;100.00;101562.09;4989123;28;20144;-47
2023/09/07 03:40:33;;;;;;;2.70;1.90;;;;;;;25.56;100.00;101554.84;4994409;28;20153;-51
2023/09/07 03:43:00;;;;;;;3.45;1.75;;;;;;;25.59;100.00;101561.59;4988985;28;20077;-52
2023/09/07 03:45:26;;;;;;;3.15;1.80;;;;;;;25.57;100.00;101556.41;4988121;28;20046;-50
2023/09/07 03:47:53;;;;;;;2.85;1.85;;;;;;;25.59;100.00;101572.97;4989611;28;20053;-50
2023/09/07 03:50:20;;;;;;;2.88;1.67;;;;;;;25.56;100.00;101569.09;4988347;28;20161;-51
2023/09/07 03:52:46;;;;;;;2.92;1.90;;;;;;;25.57;100.00;101567.00;4988809;28;20139;-50
2023/09/07 03:55:13;;;;;;;3.20;2.00;;;;;;;25.56;100.00;101573.97;4988360;28;20061;-50
2023/09/07 03:57:39;;;;;;;4.45;1.90;;;;;;;25.54;100.00;101571.63;4987508;28;20089;-49
2023/09/07 04:00:08;;;;;;;2.17;1.50;;;;;;;25.58;100.00;101579.97;4988474;28;20054;-49
2023/09/07 04:02:35;;;;;;;3.05;1.80;;;;;;;25.57;100.00;101582.03;4987145;28;20112;-52
2023/09/07 04:05:04;;;;;;;2.58;1.77;;;;;;;25.52;100.00;101584.81;4991783;28;20078;-49
2023/09/07 04:07:33;;;;;;;2.75;1.75;;;;;;;25.54;100.00;101580.19;4988451;28;20775;-51
2023/09/07 04:09:59;;;;;;;3.65;1.90;;;;;;;25.54;100.00;101585.88;4987047;28;20175;-48
2023/09/07 04:12:26;;;;;;;2.65;1.77;;;;;;;25.54;100.00;101577.34;4988418;28;20066;-49
2023/09/07 04:14:53;;;;;;;2.40;1.85;;;;;;;25.53;100.00;101577.84;4985784;28;20073;-52
2023/09/07 04:17:19;;;;;;;3.35;1.80;;;;;;;25.55;100.00;101584.59;4987703;28;20074;-49
2023/09/07 04:19:46;;;;;;;3.70;1.80;;;;;;;25.54;100.00;101585.88;4985695;28;20058;-47
2023/09/07 04:22:12;;;;;;;3.95;1.77;;;;;;;25.54;100.00;101587.94;4988346;28;20081;-51
2023/09/07 04:24:39;;;;;;;3.58;2.00;;;;;;;25.56;100.00;101579.69;4986477;28;20042;-53
2023/09/07 04:27:06;;;;;;;2.88;1.73;;;;;;;25.55;100.00;101578.88;4992924;28;20518;-47
2023/09/07 04:29:32;;;;;;;3.83;1.70;;;;;;;25.57;100.00;101582.03;4986358;28;20054;-53
2023/09/07 04:31:59;;;;;;;2.83;1.73;;;;;;;25.53;100.00;101572.94;4987211;28;20413;-51
2023/09/07 04:34:26;;;;;;;2.45;1.80;;;;;;;25.57;100.00;101581.22;4987300;28;20818;-49
2023/09/07 04:36:52;;;;;;;2.92;1.65;;;;;;;25.54;100.00;101574.47;4985028;28;20669;-49
2023/09/07 04:39:19;;;;;;;3.03;1.90;;;;;;;25.55;100.00;101572.44;4987926;28;20088;-51
2023/09/07 04:41:46;;;;;;;2.45;1.70;;;;;;;25.55;100.00;101573.19;4986210;28;20462;-47
2023/09/07 04:44:13;;;;;;;3.15;2.08;;;;;;;25.53;100.00;101575.78;4988212;28;20042;-47
2023/09/07 04:46:40;;;;;;;3.97;1.73;;;;;;;25.55;100.00;101572.44;4986849;28;20046;-49
2023/09/07 04:49:07;;;;;;;2.65;1.67;;;;;;;25.54;100.00;101568.00;4988133;28;20054;-49
2023/09/07 04:51:34;;;;;;;2.78;1.77;;;;;;;25.54;100.00;101571.63;4990297;28;20050;-48
2023/09/07 04:54:00;;;;;;;2.92;1.58;;;;;;;25.55;100.00;101578.88;4987301;28;20089;-46
2023/09/07 04:56:28;;;;;;;1.65;1.35;;;;;;;25.53;100.00;101575.78;4987633;28;20514;-47
2023/09/07 04:58:55;;;;;;;4.13;1.83;;;;;;;25.53;100.00;101578.63;4988867;28;20112;-47
2023/09/07 05:01:22;;;;;;;3.28;1.70;;;;;;;25.53;100.00;101583.53;4984481;28;20086;-48
2023/09/07 05:03:50;;;;;;;2.65;1.30;;;;;;;25.52;100.00;101576.28;4983148;28;20050;-52
2023/09/07 05:06:17;;;;;;;2.80;1.67;;;;;;;25.52;100.00;101574.19;4986697;28;20060;-47
2023/09/07 05:08:44;;;;;;;2.60;1.77;;;;;;;25.51;100.00;101569.78;4987451;28;20696;-49
2023/09/07 05:11:11;;;;;;;2.42;1.60;;;;;;;25.53;100.00;101578.63;4986729;28;20112;-47
2023/09/07 05:13:37;;;;;;;2.67;1.70;;;;;;;25.51;100.00;101578.31;4987884;28;20043;-50
2023/09/07 05:16:04;;;;;;;2.63;1.73;;;;;;;25.50;100.00;101581.69;4985908;28;20074;-49
2023/09/07 05:18:31;;;;;;;2.28;1.60;;;;;;;25.51;100.00;101586.88;4992951;28;20054;-50
2023/09/07 05:20:58;;;;;;;3.47;1.63;;;;;;;25.52;100.00;101579.88;4987649;28;20116;-50
2023/09/07 05:23:26;;;;;;;2.60;1.63;;;;;;;25.49;100.00;101580.91;4987178;28;20043;-48
2023/09/07 05:25:54;;;;;;;4.22;1.73;;;;;;;25.50;100.00;101585.31;4987628;28;20085;-50
2023/09/07 05:28:22;;;;;;;3.15;1.77;;;;;;;25.49;100.00;101583.75;4989018;28;20065;-49
2023/09/07 05:30:49;;;;;;;2.17;1.42;;;;;;;25.49;100.00;101594.34;4984964;28;20054;-50
2023/09/07 05:33:16;;;;;;;2.85;1.83;;;;;;;25.50;100.00;101593.06;4986937;28;20062;-51
2023/09/07 05:35:45;;;;;;;2.17;1.70;;;;;;;25.47;100.00;101594.84;4987201;28;20053;-49
2023/09/07 05:38:12;;;;;;;2.25;1.60;;;;;;;25.47;100.00;101594.06;4986911;28;20737;-50
2023/09/07 05:40:41;;;;;;;1.88;1.40;;;;;;;25.45;100.00;101591.72;4986208;28;20050;-51
2023/09/07 05:43:07;;;;;;;2.53;1.55;;;;;;;25.47;100.00;101592.00;4993546;28;20046;-46
2023/09/07 05:45:39;;;;;;;2.65;1.60;;;;;;;25.49;100.00;101602.91;4988225;28;20473;-50
2023/09/07 05:48:06;;;;;;;6.50;1.88;;;;;;;25.40;100.00;101600.97;4985585;28;20109;-48
2023/09/07 05:50:37;;;;;;;7.38;2.88;;;;;;;25.42;100.00;101595.56;4987262;28;20054;-53
2023/09/07 05:53:04;;;;;;;6.53;2.53;;;;;;;25.42;100.00;101604.09;4982294;28;20129;-49
2023/09/07 05:55:31;;;;;;;4.97;2.50;;;;;;;25.43;100.00;101594.25;4991002;28;20042;-50
2023/09/07 05:57:59;;;;;;;4.53;2.70;;;;;;;25.37;100.00;101599.09;4989339;28;20050;-49
2023/09/07 06:00:28;;;;;;;4.82;2.70;;;;;;;25.39;100.00;101601.44;4989907;28;20062;-48
2023/09/07 06:02:55;;;;;;;7.00;3.03;;;;;;;25.38;100.00;101597.81;4988935;28;20105;-52
2023/09/07 06:05:22;;;;;;;5.30;3.00;;;;;;;25.34;100.00;101605.03;4988824;28;20047;-46
2023/09/07 06:07:49;;;;;;;5.65;2.85;;;;;;;25.34;100.00;101602.19;4984315;28;20047;-48
2023/09/07 06:10:17;;;;;;;6.65;3.53;;;;;;;25.35;100.00;101603.75;4991703;28;20121;-49
2023/09/07 06:12:43;;;;;;;6.60;3.50;;;;;;;25.32;100.00;101605.53;4990153;28;20128;-51
2023/09/07 06:15:10;;;;;;;8.30;3.40;;;;;;;25.29;100.00;101608.56;4989722;28;20050;-46
2023/09/07 06:17:37;;;;;;;7.03;3.63;;;;;;;25.25;100.00;101617.34;4989549;28;20504;-49
2023/09/07 06:20:05;;;;;;;8.23;3.50;;;;;;;25.25;100.00;101605.16;4989840;28;20141;-50
2023/09/07 06:22:32;;;;;;;10.48;4.28;;;;;;;25.18;100.00;101606.34;4981093;28;20061;-48
2023/09/07 06:24:58;;;;;;;9.27;3.60;;;;;;;25.24;100.00;101612.16;4981597;28;20042;-50
2023/09/07 06:27:25;;;;;;;7.13;3.33;;;;;;;25.25;100.00;101611.66;4990000;28;20050;-51
2023/09/07 06:29:52;;;;;;;9.65;3.78;;;;;;;25.27;100.00;101611.13;4985336;28;20077;-47
2023/09/07 06:32:18;;;;;;;7.10;3.38;;;;;;;25.31;100.00;101615.31;4987778;28;20096;-48
2023/09/07 06:34:45;;;;;;;8.20;3.55;;;;;;;25.34;100.00;101619.25;4988343;28;20133;-49
2023/09/07 06:37:12;;;;;;;10.13;3.88;;;;;;;25.35;100.00;101617.97;4986861;28;20047;-49
2023/09/07 06:39:39;;;;;;;8.85;3.83;;;;;;;25.32;100.00;101611.22;4986889;28;20054;-52
2023/09/07 06:42:05;;;;;;;9.48;3.72;;;;;;;25.34;100.00;101611.47;4989305;28;20414;-48
2023/09/07 06:44:34;;;;;;;10.07;4.28;;;;;;;25.25;100.00;101605.97;4989933;28;20045;-48
2023/09/07 06:47:00;;;;;;;9.23;4.15;;;;;;;25.27;100.00;101613.97;4988051;28;20046;-53
2023/09/07 06:49:29;;;;;;;9.70;4.47;;;;;;;25.23;100.00;101617.03;4989776;28;20468;-48
2023/09/07 06:51:56;;;;;;;11.43;5.15;;;;;;;25.19;100.00;101613.63;4994052;28;20101;-46
2023/09/07 06:54:23;;;;;;;11.45;4.88;;;;;;;25.20;100.00;101615.19;4988132;28;20593;-48
2023/09/07 06:56:50;;;;;;;13.60;5.30;;;;;;;25.15;100.00;101620.81;4988630;28;20050;-47
2023/09/07 06:59:17;;;;;;;13.30;4.82;;;;;;;25.19;100.00;101618.53;4986121;28;20464;-49
2023/09/07 07:01:43;;;;;;;12.85;5.20;;;;;;;25.18;100.00;101616.97;4988266;28;20050;-48
2023/09/07 07:04:10;;;;;;;14.70;6.15;;;;;;;25.23;100.00;101619.09;4989272;28;20042;-48
2023/09/07 07:06:37;;;;;;;17.30;6.20;;;;;;;25.26;100.00;101618.09;4986719;28;20105;-52
2023/09/07 07:09:03;;;;;;;12.52;5.32;;;;;;;25.26;100.00;101623.78;4989447;28;20093;-48
2023/09/07 07:11:30;;;;;;;16.05;5.00;;;;;;;25.24;100.00;101621.44;4985738;28;20046;-50
2023/09/07 07:13:56;;;;;;;14.68;5.70;;;;;;;25.10;100.00;101624.34;4988482;28;20120;-49
2023/09/07 07:16:23;;;;;;;13.73;5.90;;;;;;;25.16;100.00;101628.84;4989423;28;20083;-50
2023/09/07 07:18:50;;;;;;;16.88;6.35;;;;;;;25.18;100.00;101634.06;4988143;28;20232;-46
2023/09/07 07:21:16;;;;;;;19.83;7.55;;;;;;;25.14;100.00;101627.78;4988773;28;20434;-48
2023/09/07 07:23:43;;;;;;;14.48;5.03;;;;;;;25.06;100.00;101633.13;4985633;28;20057;-52
2023/09/07 07:26:09;;;;;;;10.68;5.18;;;;;;;25.14;100.00;101637.09;4988418;28;20101;-52
2023/09/07 07:28:36;;;;;;;12.43;5.85;;;;;;;25.04;100.00;101632.81;4981266;28;20050;-47
2023/09/07 07:31:09;;;;;;;20.52;6.78;;;;;;;24.97;100.00;101629.63;4983466;28;20109;-50
2023/09/07 07:33:37;;;;;;;13.20;5.32;;;;;;;25.13;100.00;101632.69;4988261;28;20050;-47
2023/09/07 07:36:04;;;;;;;21.80;6.13;;;;;;;25.06;100.00;101627.44;4984807;28;20116;-50
2023/09/07 07:38:31;;;;;;;20.20;5.78;;;;;;;24.90;100.00;101632.91;4987484;28;20062;-47
2023/09/07 07:40:58;;;;;;;14.77;5.97;;;;;;;24.97;100.00;101623.94;4984043;28;20046;-54
2023/09/07 07:43:24;;;;;;;13.10;5.80;;;;;;;25.06;100.00;101630.28;4989075;28;20054;-46
2023/09/07 07:45:54;;;;;;;13.95;6.13;;;;;;;25.00;100.00;101635.09;4988181;28;20166;-46
2023/09/07 07:48:21;;;;;;;11.90;5.53;;;;;;;25.05;100.00;101623.03;4986052;28;20060;-46
2023/09/07 07:50:47;;;;;;;12.40;5.53;;;;;;;25.05;100.00;101630.75;4988711;28;20125;-47
2023/09/07 07:53:14;;;;;;;12.43;5.78;;;;;;;25.12;100.00;101633.19;4988675;28;20140;-52
2023/09/07 07:55:41;;;;;;;15.45;5.20;;;;;;;25.03;100.00;101634.09;4988088;28;20053;-46
2023/09/07 07:58:09;;;;;;;17.75;6.30;;;;;;;24.91;100.00;101632.41;4989149;28;20121;-48
2023/09/07 08:00:40;;;;;;;12.20;5.22;;;;;;;24.99;100.00;101632.75;4987462;28;20049;-48
2023/09/07 08:03:07;;;;;;;15.18;4.95;;;;;;;25.05;100.00;101631.56;4992655;28;20409;-50
2023/09/07 08:05:35;;;;;;;12.13;5.10;;;;;;;25.03;100.00;101628.41;4988483;28;20084;-50
2023/09/07 08:08:02;;;;;;;14.13;5.50;;;;;;;24.91;100.00;101629.56;4986869;28;20134;-47
2023/09/07 08:10:28;;;;;;;12.25;5.75;;;;;;;24.89;100.00;101631.31;4988714;28;20047;-52
2023/09/07 08:12:58;;;;;;;11.27;4.40;;;;;;;24.86;100.00;101618.88;4989447;28;20108;-49
2023/09/07 08:15:25;;;;;;;12.88;5.53;;;;;;;24.94;100.00;101616.41;4989650;28;20169;-46
2023/09/07 08:17:52;;;;;;;15.52;5.75;;;;;;;24.99;100.00;101621.38;4980095;28;20516;-44
2023/09/07 08:20:19;;;;;;;10.27;5.13;;;;;;;24.95;100.00;101615.09;4987489;28;20056;-46
2023/09/07 08:22:46;;;;;;;10.95;5.28;;;;;;;25.08;100.00;101624.09;4986763;28;20058;-45
2023/09/07 08:25:14;;;;;;;17.48;5.97;;;;;;;24.94;100.00;101631.38;4986775;28;20054;-51
2023/09/07 08:27:45;;;;;;;11.88;5.05;;;;;;;25.09;100.00;101617.09;4988678;28;20049;-47
2023/09/07 08:30:15;;;;;;;12.77;5.32;;;;;;;24.97;100.00;101616.16;4989014;28;20058;-47
2023/09/07 08:32:42;;;;;;;13.48;5.03;;;;;;;24.94;100.00;101614.31;4986451;28;20077;-48
2023/09/07 08:35:13;;;;;;;12.63;5.50;;;;;;;24.95;100.00;101610.22;4988810;28;20050;-47
2023/09/07 08:37:40;;;;;;;13.73;5.38;;;;;;;24.99;100.00;101612.84;4988507;28;20057;-48
2023/09/07 08:40:08;;;;;;;10.73;4.90;;;;;;;25.00;100.00;101603.81;4988460;28;20050;-51
2023/09/07 08:42:36;;;;;;;13.57;5.00;;;;;;;24.87;100.00;101619.66;4985813;28;20050;-49
2023/09/07 08:45:06;;;;;;;12.18;5.57;;;;;;;24.77;100.00;101615.34;4989030;28;20129;-49
2023/09/07 08:47:38;;;;;;;12.68;5.20;;;;;;;24.91;100.00;101612.50;4988414;28;20054;-47
2023/09/07 08:50:08;;;;;;;14.27;5.18;;;;;;;24.85;100.00;101605.94;4986195;28;20050;-49
2023/09/07 08:52:35;;;;;;;14.07;4.85;;;;;;;24.87;100.00;101609.03;4984424;28;20129;-49
2023/09/07 08:55:05;;;;;;;13.48;5.13;;;;;;;24.93;100.00;101604.22;4985850;28;20583;-49
2023/09/07 08:57:32;;;;;;;14.80;5.18;;;;;;;24.90;100.00;101605.22;4985540;28;20079;-47
2023/09/07 08:59:59;;;;;;;12.13;4.75;;;;;;;24.95;100.00;101604.53;4986314;28;20050;-49
2023/09/07 09:02:26;;;;;;;12.65;5.47;;;;;;;24.99;100.00;101602.25;4986146;28;20137;-51
2023/09/07 09:04:53;;;;;;;15.50;5.57;;;;;;;25.00;100.00;101597.34;4984600;28;20078;-49
2023/09/07 09:07:21;;;;;;;9.52;4.57;;;;;;;25.01;100.00;101602.50;4986109;28;20157;-53
2023/09/07 09:09:49;;;;;;;12.20;5.13;;;;;;;24.96;100.00;101596.75;4985746;28;20129;-50
2023/09/07 09:12:16;;;;;;;13.02;5.35;;;;;;;25.11;100.00;101603.94;4985724;28;20053;-50
2023/09/07 09:14:44;;;;;;;17.23;5.70;;;;;;;25.19;100.00;101602.25;4984589;28;20061;-51
2023/09/07 09:17:13;;;;;;;12.43;4.93;;;;;;;25.30;100.00;101605.22;4988158;28;20562;-46
2023/09/07 09:19:41;;;;;;;13.77;4.97;;;;;;;25.35;100.00;101610.19;4984501;28;20065;-48
2023/09/07 09:22:08;;;;;;;13.98;6.18;;;;;;;25.38;100.00;101602.75;4984492;28;20472;-52
2023/09/07 09:24:35;;;;;;;11.90;5.13;;;;;;;25.41;100.00;101596.06;4983179;28;20089;-49
2023/09/07 09:27:03;;;;;;;10.68;5.28;;;;;;;25.42;100.00;101598.41;4988749;28;20141;-49
2023/09/07 09:29:34;;;;;;;10.20;4.97;;;;;;;25.41;100.00;101598.91;4987309;28;20054;-49
2023/09/07 09:32:06;;;;;;;11.43;4.88;;;;;;;25.39;100.00;101588.00;4992531;28;20121;-49
2023/09/07 09:34:34;;;;;;;11.88;4.70;;;;;;;25.40;100.00;101589.56;4989474;28;20880;-48
2023/09/07 09:37:02;;;;;;;13.63;4.68;;;;;;;25.40;100.00;101585.94;4991447;28;20053;-47
2023/09/07 09:39:28;;;;;;;12.07;4.88;;;;;;;25.42;100.00;101581.31;4991691;28;20050;-47
2023/09/07 09:41:55;;;;;;;9.25;4.32;;;;;;;25.38;100.00;101582.81;4991914;28;20050;-51
2023/09/07 09:44:26;;;;;;;12.90;4.30;;;;;;;25.32;100.00;101581.97;4994710;28;20137;-49
2023/09/07 09:46:55;;;;;;;11.35;4.90;;;;;;;25.27;100.00;101580.59;4989959;28;20081;-47
2023/09/07 09:49:22;;;;;;;18.27;5.60;;;;;;;25.24;100.00;101575.91;4986960;28;20118;-48
2023/09/07 09:51:52;;;;;;;13.45;5.13;;;;;;;25.19;100.00;101579.50;4988876;28;20156;-48
2023/09/07 09:54:19;;;;;;;14.40;5.63;;;;;;;25.20;100.00;101572.50;4989980;28;20062;-49
2023/09/07 09:56:46;;;;;;;13.18;4.95;;;;;;;25.26;100.00;101573.38;4987867;28;20549;-48
2023/09/07 09:59:14;;;;;;;13.13;5.53;;;;;;;25.31;100.00;101566.94;4996653;28;20133;-45
2023/09/07 10:01:44;;;;;;;12.82;5.28;;;;;;;25.30;100.00;101565.38;4989645;28;20046;-46
2023/09/07 10:04:17;;;;;;;12.98;5.47;;;;;;;25.35;100.00;101569.59;4992315;28;20042;-45
2023/09/07 10:06:54;;;;;;;9.93;5.18;;;;;;;25.35;100.00;101569.59;4990723;28;20074;-47
2023/09/07 10:09:21;;;;;;;13.18;5.18;;;;;;;25.38;100.00;101557.97;4986307;28;20115;-48
2023/09/07 10:11:53;;;;;;;13.40;5.00;;;;;;;25.47;100.00;101566.38;4991459;28;20136;-53
2023/09/07 10:14:20;;;;;;;14.30;5.97;;;;;;;25.51;100.00;101566.19;4990558;28;20505;-54
2023/09/07 10:16:53;;;;;;;10.88;5.00;;;;;;;25.53;100.00;101558.69;4989613;28;20050;-48
2023/09/07 10:19:22;;;;;;;12.38;5.45;;;;;;;25.57;100.00;101559.25;4992808;28;20053;-53
2023/09/07 10:21:50;;;;;;;11.60;5.72;;;;;;;25.59;100.00;101558.75;4990561;28;20050;-53
2023/09/07 10:24:30;;;;;;;13.70;5.38;;;;;;;25.60;100.00;101555.41;4990839;28;20068;-51
2023/09/07 10:27:03;;;;;;;11.25;5.50;;;;;;;25.61;100.00;101553.34;4987252;28;20145;-50
2023/09/07 10:29:41;;;;;;;11.98;5.25;;;;;;;25.54;100.00;101553.75;4989721;28;20089;-48
2023/09/07 10:32:08;;;;;;;8.90;4.55;;;;;;;25.59;100.00;101545.31;4984908;28;20052;-50
2023/09/07 10:34:39;;;;;;;11.88;5.90;;;;;;;25.59;100.00;101556.69;4990950;28;20049;-50
2023/09/07 10:37:10;;;;;;;11.82;5.45;;;;;;;25.58;100.00;101560.03;4993351;28;20125;-48
2023/09/07 10:39:38;;;;;;;14.23;5.28;;;;;;;25.57;100.00;101550.69;4989877;28;20046;-48
2023/09/07 10:42:05;;;;;;;12.65;5.32;;;;;;;25.59;100.00;101544.50;4991220;28;20381;-51
2023/09/07 10:44:31;;;;;;;9.93;5.07;;;;;;;25.61;100.00;101536.25;4985542;28;20472;-50
2023/09/07 10:46:59;;;;;;;11.55;4.70;;;;;;;25.60;100.00;101532.63;4990636;28;20077;-48
2023/09/07 10:49:26;;;;;;;10.95;5.25;;;;;;;25.60;100.00;101534.69;4989425;28;20042;-50
2023/09/07 10:51:52;;;;;;;10.25;5.35;;;;;;;25.60;100.00;101531.81;4982478;28;20229;-50
2023/09/07 10:54:23;;;;;;;23.20;6.07;;;;;;;25.61;100.00;101528.47;4984971;28;20594;-52
2023/09/07 10:56:50;;;;;;;9.98;4.75;;;;;;;25.55;100.00;101524.78;4986902;28;20046;-50
2023/09/07 10:59:17;;;;;;;9.55;4.90;;;;;;;25.58;100.00;101528.72;4990101;28;20050;-48
2023/09/07 11:01:45;;;;;;;11.32;5.10;;;;;;;25.61;100.00;101522.78;4989621;28;20054;-48
2023/09/07 11:04:12;;;;;;;9.23;4.70;;;;;;;25.60;100.00;101529.78;4990125;28;20050;-50
2023/09/07 11:06:41;;;;;;;11.32;4.60;;;;;;;25.60;100.00;101526.94;4989212;28;20563;-51
2023/09/07 11:09:10;;;;;;;11.82;4.88;;;;;;;25.56;100.00;101519.88;4987720;28;20077;-57
2023/09/07 11:11:38;;;;;;;13.82;5.65;;;;;;;25.57;100.00;101524.28;4988432;28;20057;-53
2023/09/07 11:14:05;;;;;;;9.27;4.55;;;;;;;25.59;100.00;101522.53;4990039;28;20057;-51
2023/09/07 11:16:34;;;;;;;9.05;4.65;;;;;;;25.57;100.00;101521.44;4997157;28;20042;-51